Wegatchie, New York
Current Conditions -  °F | °C
As of 2:58 AM on Tuesday 21 Oct 2014 (Local Time) from KGTB Reporting Station
Overcast Overcast  
Wind Chill: 41°   Ceiling: 3000
Heat Index: 46°   Visibility: 10mi
Dew Point: 44°   Wind: 10mph
Humidity: 90%   Direction: 150°SSE
Pressure: 29.83"   Gusts: NA
Location:  44.2513°N, 75.6074°W
Report Text: KGTB 210658Z AUTO 15009KT 10SM BKN030 OVC048 08/06 A2983 RMK AO2 RAE0620DZB0620E0634 SLP105 P0001 T00790064
Loading
Personal Weather Stations






























Interactive Weather Map
Tropical Storm Tracking
New forecast layout! Learn more

10-Day Weather Forecast

Advertisements
Track Severe Weather on mobile